Time;durP1;ratioP1;P1;durP2;ratioP2;P2;SDS_P1;SDS_P2;PMS_P1;PMS_P2;Temp;Humidity;BMP_temperature;BMP_pressure;BME280_temperature;BME280_humidity;BME280_pressure;Samples;Min_cycle;Max_cycle;Signal;HPM_P1;HPM_P2
2023/12/25 00:02:17;;;;;;;17.90;7.83;;;;;7.20;96065.00;;;;5123769;27;20221;-65
2023/12/25 00:05:08;;;;;;;15.90;7.33;;;;;7.70;96066.00;;;;5122126;27;20228;-65
2023/12/25 00:07:58;;;;;;;11.43;5.83;;;;;7.90;96064.00;;;;5127624;27;20652;-65
2023/12/25 00:10:47;;;;;;;23.43;9.30;;;;;8.10;96080.00;;;;5121995;27;20206;-66
2023/12/25 00:13:36;;;;;;;24.23;9.53;;;;;8.20;96068.00;;;;5118267;28;20230;-66
2023/12/25 00:16:26;;;;;;;15.17;6.70;;;;;8.20;96063.00;;;;5121438;27;20202;-66
2023/12/25 00:19:15;;;;;;;13.20;6.77;;;;;7.90;96057.00;;;;5118393;27;20206;-65
2023/12/25 00:22:06;;;;;;;20.53;8.53;;;;;8.10;96069.00;;;;5124360;27;20222;-66
2023/12/25 00:24:55;;;;;;;12.13;6.30;;;;;7.70;96057.00;;;;5115943;27;20220;-66
2023/12/25 00:27:44;;;;;;;18.63;7.47;;;;;6.70;96047.00;;;;5105930;28;20210;-66
2023/12/25 00:30:33;;;;;;;15.60;6.77;;;;;7.30;96060.00;;;;5103980;28;20207;-66
2023/12/25 00:33:22;;;;;;;23.33;9.13;;;;;7.70;96053.00;;;;5108232;27;20253;-66
2023/12/25 00:36:12;;;;;;;11.53;5.40;;;;;7.90;96045.00;;;;5107956;27;20260;-67
2023/12/25 00:39:03;;;;;;;9.10;4.77;;;;;7.40;96037.00;;;;5117715;27;20600;-66
2023/12/25 00:41:52;;;;;;;12.57;5.60;;;;;7.30;96026.00;;;;5119413;27;20218;-65
2023/12/25 00:44:41;;;;;;;24.37;8.67;;;;;7.80;96035.00;;;;5104458;27;20204;-66
2023/12/25 00:47:30;;;;;;;18.17;7.47;;;;;8.00;96030.00;;;;5100948;28;20206;-66
2023/12/25 00:50:20;;;;;;;24.47;9.20;;;;;7.50;96040.00;;;;5104501;28;20198;-66
2023/12/25 00:53:09;;;;;;;13.53;5.67;;;;;7.70;96043.00;;;;5112354;27;20242;-66
2023/12/25 00:56:00;;;;;;;11.77;5.40;;;;;7.50;96030.00;;;;5105258;27;20340;-65
2023/12/25 00:58:49;;;;;;;23.40;8.53;;;;;7.60;96029.00;;;;5104477;28;20202;-66
2023/12/25 01:01:38;;;;;;;21.37;8.10;;;;;7.80;96035.00;;;;5106481;27;20199;-65
2023/12/25 01:04:28;;;;;;;12.63;5.30;;;;;7.50;96042.00;;;;5103000;28;20208;-66
2023/12/25 01:07:17;;;;;;;15.30;5.87;;;;;6.90;96031.00;;;;5110106;27;20202;-64
2023/12/25 01:10:06;;;;;;;12.77;5.50;;;;;7.30;96037.00;;;;5103594;28;20206;-65
2023/12/25 01:12:57;;;;;;;12.63;5.20;;;;;7.70;96049.00;;;;5111157;27;20227;-66
2023/12/25 01:15:46;;;;;;;24.80;9.03;;;;;7.50;96048.00;;;;5105657;28;20835;-65
2023/12/25 01:18:35;;;;;;;20.33;7.67;;;;;7.00;96052.00;;;;5111196;27;20209;-69
2023/12/25 01:21:24;;;;;;;11.20;4.93;;;;;7.60;96061.00;;;;5108798;27;20623;-64
2023/12/25 01:24:14;;;;;;;17.30;6.57;;;;;7.60;96064.00;;;;5111142;27;20211;-64
2023/12/25 01:27:03;;;;;;;10.50;5.23;;;;;7.90;96052.00;;;;5109899;27;20199;-65
2023/12/25 01:29:54;;;;;;;13.90;6.20;;;;;7.90;96054.00;;;;5107930;27;20195;-65
2023/12/25 01:32:43;;;;;;;20.93;7.70;;;;;7.90;96060.00;;;;5098553;28;20786;-64
2023/12/25 01:35:32;;;;;;;14.57;5.97;;;;;7.00;96072.00;;;;5097302;28;20198;-65
2023/12/25 01:38:21;;;;;;;11.73;5.37;;;;;6.80;96060.00;;;;5112333;27;20202;-65
2023/12/25 01:41:11;;;;;;;12.93;5.13;;;;;6.80;96061.00;;;;5118502;27;20215;-64
2023/12/25 01:44:01;;;;;;;13.43;5.33;;;;;6.90;96070.00;;;;5101751;28;20194;-65
2023/12/25 01:46:52;;;;;;;10.23;4.53;;;;;7.10;96054.00;;;;5115305;27;20579;-65
2023/12/25 01:49:42;;;;;;;18.97;6.83;;;;;7.00;96059.00;;;;5105389;28;20602;-66
2023/12/25 01:52:31;;;;;;;12.40;5.07;;;;;7.20;96078.00;;;;5110124;27;20599;-64
2023/12/25 01:55:20;;;;;;;11.93;5.07;;;;;7.00;96058.00;;;;5105202;27;20231;-64
2023/12/25 01:58:09;;;;;;;12.77;5.77;;;;;7.40;96084.00;;;;5104503;28;20213;-65
2023/12/25 02:00:58;;;;;;;13.27;5.40;;;;;7.30;96068.00;;;;5109675;27;20210;-65
2023/12/25 02:03:49;;;;;;;14.83;6.67;;;;;7.40;96077.00;;;;5104718;28;20226;-65
2023/12/25 02:06:38;;;;;;;22.30;8.43;;;;;7.20;96076.00;;;;5098372;28;20291;-65
2023/12/25 02:09:28;;;;;;;18.97;7.47;;;;;7.10;96056.00;;;;5101074;28;20304;-65
2023/12/25 02:12:17;;;;;;;17.57;7.77;;;;;7.40;96072.00;;;;5105803;27;20237;-65
2023/12/25 02:15:07;;;;;;;13.87;7.13;;;;;7.60;96089.00;;;;5110320;27;20233;-65
2023/12/25 02:17:56;;;;;;;12.40;6.23;;;;;7.60;96073.00;;;;5110237;27;20211;-66
2023/12/25 02:20:46;;;;;;;18.13;8.10;;;;;7.60;96083.00;;;;5110408;27;20713;-65
2023/12/25 02:23:38;;;;;;;17.80;7.70;;;;;7.20;96066.00;;;;5098604;28;20222;-65
2023/12/25 02:26:29;;;;;;;14.13;7.07;;;;;7.00;96071.00;;;;5106886;27;20206;-64
2023/12/25 02:29:18;;;;;;;7.33;4.47;;;;;7.50;96078.00;;;;5107711;27;20198;-66
2023/12/25 02:32:07;;;;;;;21.80;9.03;;;;;7.20;96078.00;;;;5105057;27;20230;-65
2023/12/25 02:34:56;;;;;;;13.07;6.50;;;;;7.40;96067.00;;;;5107490;27;20222;-65
2023/12/25 02:37:46;;;;;;;23.80;8.77;;;;;7.70;96081.00;;;;5101128;28;20202;-65
2023/12/25 02:40:39;;;;;;;17.87;7.60;;;;;7.80;96076.00;;;;5107545;27;20589;-65
2023/12/25 02:43:29;;;;;;;17.80;7.10;;;;;7.70;96105.00;;;;5103550;28;20230;-65
2023/12/25 02:46:18;;;;;;;10.33;5.20;;;;;7.10;96084.00;;;;5108618;27;20208;-65
2023/12/25 02:49:07;;;;;;;9.20;5.87;;;;;7.40;96078.00;;;;5102476;28;20900;-65
2023/12/25 02:51:56;;;;;;;12.73;6.37;;;;;7.80;96104.00;;;;5107127;27;20241;-65
2023/12/25 02:54:46;;;;;;;15.83;7.57;;;;;7.70;96093.00;;;;5103824;27;20237;-65
2023/12/25 02:57:35;;;;;;;19.20;8.50;;;;;7.80;96100.00;;;;5100046;28;20209;-65
2023/12/25 03:00:25;;;;;;;26.40;10.97;;;;;7.00;96066.00;;;;5105754;27;20590;-66
2023/12/25 03:03:14;;;;;;;18.40;8.37;;;;;7.70;96081.00;;;;5100290;28;20638;-66
2023/12/25 03:06:04;;;;;;;10.93;5.73;;;;;8.00;96093.00;;;;5110064;27;20675;-67
2023/12/25 03:08:53;;;;;;;8.93;5.20;;;;;7.30;96087.00;;;;5103265;27;20280;-64
2023/12/25 03:11:42;;;;;;;23.33;9.97;;;;;7.70;96093.00;;;;5101661;28;20210;-63
2023/12/25 03:14:31;;;;;;;12.63;6.57;;;;;7.10;96083.00;;;;5083223;22;20708;-87
2023/12/25 03:17:22;;;;;;;16.80;7.20;;;;;7.90;96105.00;;;;5039535;28;20212;-89
2023/12/25 03:20:12;;;;;;;10.87;5.60;;;;;8.00;96098.00;;;;5040869;28;20205;-88
2023/12/25 03:23:01;;;;;;;15.83;8.50;;;;;8.00;96083.00;;;;5042706;28;20223;-88
2023/12/25 03:25:50;;;;;;;23.10;11.27;;;;;8.10;96099.00;;;;5048091;28;20690;-88
2023/12/25 03:28:40;;;;;;;13.83;8.33;;;;;7.60;96087.00;;;;5041403;28;20205;-88
2023/12/25 03:31:29;;;;;;;18.20;8.17;;;;;8.10;96093.00;;;;5043746;28;20682;-88
2023/12/25 03:34:20;;;;;;;10.60;6.60;;;;;7.00;96087.00;;;;5044538;28;20220;-88
2023/12/25 03:37:10;;;;;;;27.40;11.57;;;;;7.90;96111.00;;;;5039695;28;20209;-88
2023/12/25 03:39:59;;;;;;;13.47;7.97;;;;;7.50;96105.00;;;;5046596;28;20212;-87
2023/12/25 03:42:48;;;;;;;14.37;8.27;;;;;7.20;96095.00;;;;5040547;28;20205;-88
2023/12/25 03:45:37;;;;;;;19.93;9.27;;;;;7.60;96100.00;;;;5040515;28;20612;-88
2023/12/25 03:48:26;;;;;;;11.80;7.40;;;;;7.80;96103.00;;;;5042249;28;20216;-88
2023/12/25 03:51:17;;;;;;;11.53;8.07;;;;;7.70;96105.00;;;;5039546;28;20249;-88
2023/12/25 03:54:06;;;;;;;14.57;8.53;;;;;7.60;96115.00;;;;5042250;28;20213;-88
2023/12/25 03:56:55;;;;;;;13.80;8.83;;;;;7.70;96102.00;;;;5041579;28;20221;-88
2023/12/25 03:59:44;;;;;;;19.00;9.53;;;;;7.50;96123.00;;;;5042318;28;20665;-88
2023/12/25 04:02:33;;;;;;;14.40;8.50;;;;;7.70;96108.00;;;;5044518;28;20211;-87
2023/12/25 04:05:23;;;;;;;12.33;8.13;;;;;7.00;96115.00;;;;5044266;28;20228;-87
2023/12/25 04:08:14;;;;;;;12.87;8.93;;;;;7.50;96108.00;;;;5049796;28;20295;-88
2023/12/25 04:11:03;;;;;;;16.23;9.10;;;;;7.40;96093.00;;;;5047605;28;20200;-88
2023/12/25 04:13:54;;;;;;;12.50;7.57;;;;;7.60;96108.00;;;;5048587;28;20213;-88
2023/12/25 04:16:43;;;;;;;23.27;12.20;;;;;7.50;96110.00;;;;5046158;28;20221;-87
2023/12/25 04:19:32;;;;;;;10.10;9.33;;;;;7.60;96110.00;;;;5047977;28;20208;-87
2023/12/25 04:22:22;;;;;;;14.63;10.20;;;;;7.40;96097.00;;;;5043695;28;20201;-88
2023/12/25 04:25:12;;;;;;;14.23;9.70;;;;;7.70;96115.00;;;;5050096;28;20217;-88
2023/12/25 04:28:03;;;;;;;13.97;8.80;;;;;7.70;96102.00;;;;5048637;28;20744;-88
2023/12/25 04:30:52;;;;;;;6.97;5.83;;;;;7.30;96124.00;;;;5044205;28;20231;-88
2023/12/25 04:33:41;;;;;;;23.20;9.60;;;;;7.50;96113.00;;;;5050287;28;20359;-89
2023/12/25 04:36:31;;;;;;;13.03;9.30;;;;;7.20;96098.00;;;;5046835;28;20322;-88
2023/12/25 04:39:20;;;;;;;13.47;7.73;;;;;7.60;96104.00;;;;5040663;28;20215;-89
2023/12/25 04:42:10;;;;;;;21.43;9.63;;;;;7.20;96122.00;;;;5047760;28;20209;-87
2023/12/25 04:45:00;;;;;;;11.53;6.03;;;;;7.20;96125.00;;;;5047744;28;20216;-88
2023/12/25 04:47:49;;;;;;;19.37;7.50;;;;;7.60;96125.00;;;;5049688;28;20238;-88
2023/12/25 04:50:39;;;;;;;18.30;8.73;;;;;7.50;96104.00;;;;5039930;28;20201;-87
2023/12/25 04:53:29;;;;;;;19.23;9.53;;;;;7.30;96119.00;;;;5043650;28;20228;-88
2023/12/25 04:56:18;;;;;;;12.37;8.17;;;;;7.40;96128.00;;;;5041601;28;20235;-88
2023/12/25 04:59:10;;;;;;;13.10;7.63;;;;;7.60;96133.00;;;;5047900;28;20208;-88
2023/12/25 05:02:00;;;;;;;18.97;10.17;;;;;7.60;96151.00;;;;5044613;28;20205;-88
2023/12/25 05:04:49;;;;;;;12.80;8.43;;;;;7.60;96138.00;;;;5042496;28;20672;-88
2023/12/25 05:07:38;;;;;;;20.13;10.77;;;;;7.30;96134.00;;;;5044678;28;20200;-89
2023/12/25 05:10:27;;;;;;;17.40;11.40;;;;;7.40;96142.00;;;;5057381;28;20201;-89
2023/12/25 05:13:17;;;;;;;20.73;12.40;;;;;7.40;96145.00;;;;5074144;28;20256;-89
2023/12/25 05:16:07;;;;;;;14.43;11.80;;;;;7.30;96159.00;;;;5044934;28;20213;-88
2023/12/25 05:18:56;;;;;;;15.00;11.80;;;;;6.80;96144.00;;;;5046585;28;20197;-88
2023/12/25 05:21:46;;;;;;;25.23;16.43;;;;;7.10;96155.00;;;;5044592;28;20295;-87
2023/12/25 05:24:35;;;;;;;9.50;5.47;;;;;7.30;96166.00;;;;5045893;28;20259;-88
2023/12/25 05:27:24;;;;;;;16.70;9.10;;;;;6.60;96148.00;;;;5044670;28;20219;-88
2023/12/25 05:30:14;;;;;;;12.97;9.00;;;;;6.60;96153.00;;;;5050656;28;20209;-89
2023/12/25 05:33:05;;;;;;;10.87;9.77;;;;;7.20;96164.00;;;;5047047;28;20284;-87
2023/12/25 05:35:54;;;;;;;9.93;8.60;;;;;7.40;96170.00;;;;5048584;28;20935;-88
2023/12/25 05:38:43;;;;;;;25.13;13.13;;;;;6.70;96169.00;;;;5041541;28;20197;-88
2023/12/25 05:41:36;;;;;;;15.27;11.77;;;;;7.20;96157.00;;;;5046191;28;20219;-88
2023/12/25 05:44:25;;;;;;;13.63;10.03;;;;;7.30;96181.00;;;;5045217;28;20213;-88
2023/12/25 05:47:14;;;;;;;16.73;10.80;;;;;7.40;96167.00;;;;5046248;28;20212;-87
2023/12/25 05:50:07;;;;;;;15.60;10.33;;;;;7.40;96191.00;;;;5047747;28;20202;-88
2023/12/25 05:52:57;;;;;;;14.07;9.53;;;;;7.50;96174.00;;;;5046954;28;20194;-89
2023/12/25 05:55:46;;;;;;;24.27;11.07;;;;;7.40;96182.00;;;;5045723;28;20227;-88
2023/12/25 05:58:35;;;;;;;13.57;9.27;;;;;7.40;96174.00;;;;5048230;28;20215;-88
2023/12/25 06:01:24;;;;;;;13.10;7.33;;;;;6.90;96195.00;;;;5044539;28;20213;-88
2023/12/25 06:04:13;;;;;;;14.60;8.60;;;;;6.40;96178.00;;;;5041703;28;20204;-89
2023/12/25 06:07:04;;;;;;;14.30;10.57;;;;;7.00;96187.00;;;;5049514;28;20211;-88
2023/12/25 06:09:53;;;;;;;20.47;10.30;;;;;6.80;96183.00;;;;5045637;28;20584;-88
2023/12/25 06:12:43;;;;;;;19.37;9.37;;;;;7.20;96185.00;;;;5042449;28;20936;-88
2023/12/25 06:15:32;;;;;;;10.23;6.50;;;;;7.40;96194.00;;;;5042015;28;20236;-88
2023/12/25 06:18:21;;;;;;;11.77;6.03;;;;;7.30;96189.00;;;;5036232;28;20200;-88
2023/12/25 06:21:10;;;;;;;13.23;6.70;;;;;7.30;96200.00;;;;5047736;28;20204;-88
2023/12/25 06:24:01;;;;;;;12.73;7.33;;;;;7.00;96204.00;;;;5048682;28;20208;-88
2023/12/25 06:26:50;;;;;;;17.53;8.27;;;;;7.30;96202.00;;;;5047972;28;20267;-88
2023/12/25 06:29:39;;;;;;;22.73;11.07;;;;;7.10;96195.00;;;;5047050;28;20228;-88
2023/12/25 06:32:28;;;;;;;13.17;8.30;;;;;7.00;96196.00;;;;5041821;28;20201;-88
2023/12/25 06:35:18;;;;;;;11.83;7.77;;;;;7.20;96208.00;;;;5048202;28;20624;-87
2023/12/25 06:38:07;;;;;;;14.63;9.17;;;;;6.60;96218.00;;;;5046869;28;20211;-88
2023/12/25 06:40:57;;;;;;;16.53;10.47;;;;;6.90;96210.00;;;;5042576;28;20197;-88
2023/12/25 06:43:46;;;;;;;24.83;12.60;;;;;7.20;96214.00;;;;5048538;28;20201;-88
2023/12/25 06:46:36;;;;;;;12.70;10.00;;;;;7.10;96213.00;;;;5042624;28;20216;-88
2023/12/25 06:49:25;;;;;;;13.40;8.73;;;;;6.30;96207.00;;;;5040198;28;20200;-88
2023/12/25 06:52:14;;;;;;;13.93;9.10;;;;;6.80;96230.00;;;;5045775;28;20290;-88
2023/12/25 06:55:04;;;;;;;14.43;9.17;;;;;7.00;96216.00;;;;5044338;28;20224;-89
2023/12/25 06:57:54;;;;;;;22.73;11.23;;;;;7.10;96241.00;;;;5039003;28;20221;-88
2023/12/25 07:00:44;;;;;;;18.73;9.77;;;;;7.10;96232.00;;;;5043733;28;20955;-87
2023/12/25 07:03:33;;;;;;;13.43;7.50;;;;;7.20;96235.00;;;;5043852;28;20211;-88
2023/12/25 07:06:22;;;;;;;13.33;8.50;;;;;6.80;96238.00;;;;5037148;28;20220;-88
2023/12/25 07:09:14;;;;;;;14.13;9.17;;;;;7.30;96238.00;;;;5044861;28;20207;-88
2023/12/25 07:12:03;;;;;;;18.10;9.00;;;;;6.70;96247.00;;;;5042122;28;20211;-88
2023/12/25 07:14:55;;;;;;;21.53;10.63;;;;;6.70;96233.00;;;;5042147;28;20284;-89
2023/12/25 07:17:45;;;;;;;22.20;11.70;;;;;7.10;96244.00;;;;5041711;28;20217;-88
2023/12/25 07:20:34;;;;;;;6.73;6.10;;;;;7.20;96239.00;;;;5041737;28;20208;-87
2023/12/25 07:23:23;;;;;;;16.83;8.67;;;;;7.00;96238.00;;;;5046066;28;20203;-88
2023/12/25 07:26:12;;;;;;;13.13;7.37;;;;;6.80;96239.00;;;;5048672;28;20224;-87
2023/12/25 07:29:02;;;;;;;15.23;7.73;;;;;7.10;96240.00;;;;5045329;28;20211;-88
2023/12/25 07:31:53;;;;;;;23.23;9.23;;;;;7.40;96248.00;;;;5055689;28;20209;-89
2023/12/25 07:34:42;;;;;;;19.40;9.03;;;;;7.30;96244.00;;;;5072176;28;20200;-89
2023/12/25 07:37:31;;;;;;;8.20;6.83;;;;;7.20;96245.00;;;;5049620;28;20242;-88
2023/12/25 07:40:20;;;;;;;34.73;14.07;;;;;7.50;96248.00;;;;5034441;28;20208;-89
2023/12/25 07:43:11;;;;;;;27.47;11.93;;;;;7.70;96249.00;;;;5029186;28;20973;-88
2023/12/25 07:46:00;;;;;;;13.63;7.30;;;;;7.80;96254.00;;;;5047310;28;20748;-88
2023/12/25 07:48:51;;;;;;;21.63;10.83;;;;;7.50;96257.00;;;;5043023;28;20204;-88
2023/12/25 07:51:40;;;;;;;27.70;12.03;;;;;7.70;96266.00;;;;5042117;28;20208;-88
2023/12/25 07:54:29;;;;;;;11.70;7.80;;;;;7.80;96244.00;;;;5044374;28;20201;-88
2023/12/25 07:57:20;;;;;;;18.47;9.57;;;;;7.60;96253.00;;;;5042808;28;20228;-88
2023/12/25 08:00:10;;;;;;;17.17;9.67;;;;;7.70;96252.00;;;;5045404;28;20216;-88
2023/12/25 08:02:59;;;;;;;20.13;12.03;;;;;7.90;96256.00;;;;5046014;28;20215;-88
2023/12/25 08:05:50;;;;;;;25.37;14.73;;;;;8.00;96264.00;;;;5040696;28;20653;-86
2023/12/25 08:08:39;;;;;;;21.67;12.50;;;;;7.50;96272.00;;;;5044021;28;20238;-87
2023/12/25 08:11:28;;;;;;;18.33;13.73;;;;;7.70;96272.00;;;;5041527;28;20733;-88
2023/12/25 08:14:17;;;;;;;14.27;10.30;;;;;8.10;96264.00;;;;5045539;28;20208;-88
2023/12/25 08:17:07;;;;;;;14.47;9.30;;;;;7.80;96276.00;;;;5047869;28;20791;-88
2023/12/25 08:19:56;;;;;;;23.83;22.23;;;;;8.40;96274.00;;;;5042347;28;20198;-87
2023/12/25 08:22:47;;;;;;;16.50;12.63;;;;;8.70;96269.00;;;;5043337;28;20239;-87
2023/12/25 08:25:37;;;;;;;19.43;12.27;;;;;8.90;96273.00;;;;5047096;28;20232;-88
2023/12/25 08:28:26;;;;;;;12.60;11.40;;;;;8.70;96274.00;;;;5043053;28;20585;-87
2023/12/25 08:31:15;;;;;;;14.53;12.77;;;;;8.90;96289.00;;;;5043425;28;20203;-87
2023/12/25 08:34:04;;;;;;;17.23;12.63;;;;;8.80;96294.00;;;;5043769;28;20201;-87
2023/12/25 08:36:53;;;;;;;27.63;17.57;;;;;8.60;96292.00;;;;5042317;28;20657;-87
2023/12/25 08:39:44;;;;;;;25.93;14.60;;;;;9.00;96285.00;;;;5042904;28;20211;-87
2023/12/25 08:42:33;;;;;;;14.07;12.63;;;;;9.40;96290.00;;;;5045656;28;20189;-87
2023/12/25 08:45:23;;;;;;;17.13;15.40;;;;;9.10;96299.00;;;;5042287;28;20220;-88
2023/12/25 08:48:13;;;;;;;18.70;16.83;;;;;9.40;96314.00;;;;5046274;28;20315;-87
2023/12/25 08:51:02;;;;;;;21.30;18.90;;;;;9.50;96310.00;;;;5044675;28;20212;-88
2023/12/25 08:53:51;;;;;;;27.63;19.23;;;;;8.90;96320.00;;;;5047420;28;20204;-89
2023/12/25 08:56:42;;;;;;;28.37;23.80;;;;;9.40;96322.00;;;;5046598;28;20606;-89
2023/12/25 08:59:31;;;;;;;27.50;22.93;;;;;8.90;96318.00;;;;5047578;28;20219;-87
2023/12/25 09:02:20;;;;;;;19.77;16.97;;;;;9.40;96321.00;;;;5043704;28;20662;-87
2023/12/25 09:05:10;;;;;;;18.57;16.33;;;;;9.60;96337.00;;;;5045377;28;20225;-87
2023/12/25 09:07:59;;;;;;;17.57;14.27;;;;;9.20;96341.00;;;;5043618;28;20243;-87
2023/12/25 09:10:48;;;;;;;26.87;18.13;;;;;9.30;96329.00;;;;5045846;28;20211;-87
2023/12/25 09:13:39;;;;;;;20.63;18.53;;;;;9.70;96346.00;;;;5045156;28;20213;-90
2023/12/25 09:16:28;;;;;;;20.87;18.77;;;;;9.90;96336.00;;;;5047127;28;20228;-89
2023/12/25 09:19:17;;;;;;;18.10;16.43;;;;;9.40;96336.00;;;;5046209;28;20204;-87
2023/12/25 09:22:07;;;;;;;28.20;24.27;;;;;9.90;96338.00;;;;5043987;28;20205;-87
2023/12/25 09:25:12;;;;;;;21.83;19.93;;;;;9.90;96353.00;;;;5037407;28;20231;-87
2023/12/25 09:28:04;;;;;;;25.23;22.80;;;;;10.10;96335.00;;;;5043237;28;20204;-87
2023/12/25 09:30:54;;;;;;;32.77;29.67;;;;;9.60;96350.00;;;;5042976;28;20246;-87
2023/12/25 09:37:25;;;;;;;24.43;22.30;;;;;10.30;96338.00;;;;5044092;28;20232;-87
2023/12/25 09:44:40;;;;;;;40.30;23.77;;;;;10.10;96342.00;;;;4993312;22;20235;31
2023/12/25 09:47:31;;;;;;;29.87;25.93;;;;;10.50;96340.00;;;;5045322;28;20240;-84
2023/12/25 09:50:24;;;;;;;29.93;24.47;;;;;10.70;96347.00;;;;5041363;28;20694;-86
2023/12/25 09:53:13;;;;;;;28.50;24.70;;;;;10.80;96350.00;;;;5037695;28;20202;-82
2023/12/25 09:56:04;;;;;;;26.33;23.97;;;;;10.80;96336.00;;;;5036710;28;20226;-85
2023/12/25 09:58:54;;;;;;;53.73;31.73;;;;;10.50;96336.00;;;;5067496;22;20207;-64
2023/12/25 10:01:43;;;;;;;26.77;24.00;;;;;10.60;96338.00;;;;5085057;28;20211;-66
2023/12/25 10:04:37;;;;;;;25.30;22.87;;;;;10.50;96331.00;;;;5084803;28;20211;-64
2023/12/25 10:07:27;;;;;;;32.17;28.93;;;;;10.80;96343.00;;;;5087412;28;20676;-65
2023/12/25 10:10:16;;;;;;;29.37;25.87;;;;;10.40;96336.00;;;;5085898;28;20223;-65
2023/12/25 10:13:05;;;;;;;23.33;21.23;;;;;10.70;96329.00;;;;5090547;28;20207;-65
2023/12/25 10:15:54;;;;;;;26.77;22.70;;;;;11.00;96324.00;;;;5084480;28;20195;-66
2023/12/25 10:18:43;;;;;;;28.93;21.33;;;;;10.60;96339.00;;;;5084400;28;20587;-65
2023/12/25 10:21:43;;;;;;;25.20;22.87;;;;;11.00;96324.00;;;;5082434;28;20691;-65
2023/12/25 10:24:32;;;;;;;18.97;17.07;;;;;10.40;96329.00;;;;5086319;28;20221;-65
2023/12/25 10:27:23;;;;;;;25.97;22.47;;;;;10.90;96324.00;;;;5084957;28;20207;-65
2023/12/25 10:30:17;;;;;;;25.53;23.37;;;;;10.60;96326.00;;;;5064222;28;20590;-65
2023/12/25 10:33:14;;;;;;;24.50;22.10;;;;;10.30;96325.00;;;;5089915;28;20218;-65
2023/12/25 10:36:05;;;;;;;25.23;23.17;;;;;10.50;96318.00;;;;5091128;28;20218;-65
2023/12/25 10:38:56;;;;;;;32.40;27.87;;;;;11.00;96320.00;;;;5087115;28;20215;-65
2023/12/25 10:41:45;;;;;;;33.57;30.03;;;;;11.00;96322.00;;;;5085255;28;20213;-66
2023/12/25 10:44:35;;;;;;;27.50;25.23;;;;;10.80;96325.00;;;;5090381;28;20226;-64
2023/12/25 10:47:25;;;;;;;29.67;27.07;;;;;11.10;96329.00;;;;5084754;28;20195;-65
2023/12/25 10:50:14;;;;;;;30.80;27.80;;;;;10.80;96319.00;;;;5087192;28;20204;-63
2023/12/25 10:53:05;;;;;;;29.30;26.47;;;;;11.20;96319.00;;;;5087685;28;20195;-64
2023/12/25 10:55:55;;;;;;;37.03;32.53;;;;;11.10;96307.00;;;;5081855;28;20221;-65
2023/12/25 10:58:45;;;;;;;28.33;25.53;;;;;10.70;96312.00;;;;5083161;28;20212;-65
2023/12/25 11:01:35;;;;;;;26.83;24.43;;;;;11.10;96302.00;;;;5081938;28;20203;-64
2023/12/25 11:04:25;;;;;;;28.80;26.33;;;;;11.40;96304.00;;;;5086681;28;20222;-65
2023/12/25 11:07:17;;;;;;;25.33;22.97;;;;;11.50;96298.00;;;;5092596;28;20695;-64
2023/12/25 11:10:08;;;;;;;24.47;22.30;;;;;10.40;96297.00;;;;5086324;28;20814;-65
2023/12/25 11:12:58;;;;;;;28.77;26.30;;;;;11.30;96307.00;;;;5077477;28;20211;-64
2023/12/25 11:15:47;;;;;;;35.37;31.23;;;;;11.50;96304.00;;;;5086739;28;20210;-65
2023/12/25 11:18:38;;;;;;;30.07;27.27;;;;;10.90;96307.00;;;;5080356;28;20227;-65
2023/12/25 11:21:30;;;;;;;21.27;19.47;;;;;11.40;96307.00;;;;5075636;28;20196;-66
2023/12/25 11:24:19;;;;;;;19.87;18.23;;;;;11.70;96305.00;;;;5085143;28;20223;-65
2023/12/25 11:27:16;;;;;;;26.57;22.57;;;;;11.40;96301.00;;;;5087475;28;20219;-65
2023/12/25 11:30:10;;;;;;;19.13;17.17;;;;;11.60;96295.00;;;;5087473;28;20613;-66
2023/12/25 11:33:02;;;;;;;28.17;25.77;;;;;11.50;96293.00;;;;5081343;28;20199;-66
2023/12/25 11:35:51;;;;;;;41.33;37.40;;;;;11.80;96294.00;;;;5082741;28;20207;-65
2023/12/25 11:38:42;;;;;;;40.90;37.80;;;;;11.90;96292.00;;;;5085118;28;20261;-65
2023/12/25 11:41:37;;;;;;;33.73;31.07;;;;;11.40;96287.00;;;;5082387;28;20214;-65
2023/12/25 11:44:32;;;;;;;28.97;26.80;;;;;11.80;96293.00;;;;5087107;28;20620;-65
2023/12/25 11:47:29;;;;;;;31.03;27.83;;;;;11.90;96281.00;;;;5084030;28;20222;-66
2023/12/25 11:50:19;;;;;;;36.70;32.87;;;;;11.90;96280.00;;;;5085950;28;20198;-65
2023/12/25 11:53:08;;;;;;;34.20;31.37;;;;;11.30;96273.00;;;;5085170;28;20221;-66
2023/12/25 11:55:58;;;;;;;33.63;30.80;;;;;11.80;96272.00;;;;5082472;28;20692;-66
2023/12/25 11:58:47;;;;;;;40.77;36.63;;;;;11.60;96281.00;;;;5081138;28;20242;-65
2023/12/25 12:01:39;;;;;;;30.90;29.03;;;;;11.90;96270.00;;;;5079171;28;20200;-65
2023/12/25 12:04:29;;;;;;;39.03;36.10;;;;;11.80;96264.00;;;;5082509;28;20593;-65
2023/12/25 12:07:18;;;;;;;33.13;30.67;;;;;12.00;96267.00;;;;5079509;28;20203;-66
2023/12/25 12:10:09;;;;;;;31.17;29.03;;;;;11.50;96268.00;;;;5081321;28;20200;-66
2023/12/25 12:13:01;;;;;;;42.47;37.97;;;;;11.90;96264.00;;;;5074508;28;20196;-66
2023/12/25 12:15:51;;;;;;;41.13;37.33;;;;;11.10;96261.00;;;;5079932;28;20199;-65
2023/12/25 12:18:40;;;;;;;34.27;31.40;;;;;11.20;96256.00;;;;5080453;28;20215;-63
2023/12/25 12:21:30;;;;;;;34.50;31.63;;;;;11.80;96252.00;;;;5080303;28;20203;-64
2023/12/25 12:24:27;;;;;;;34.13;31.73;;;;;12.00;96243.00;;;;5082294;28;20219;-64
2023/12/25 12:27:20;;;;;;;28.30;25.73;;;;;12.20;96253.00;;;;5086479;28;20203;-65
2023/12/25 12:30:10;;;;;;;33.03;30.37;;;;;11.70;96242.00;;;;5081072;28;20202;-64
2023/12/25 12:32:59;;;;;;;31.77;29.13;;;;;12.10;96244.00;;;;5082802;28;20210;-65
2023/12/25 12:35:49;;;;;;;41.90;37.73;;;;;12.10;96249.00;;;;5081106;28;20830;-65
2023/12/25 12:38:43;;;;;;;36.37;33.67;;;;;12.00;96260.00;;;;5084263;28;20213;-65
2023/12/25 12:41:33;;;;;;;32.30;29.60;;;;;12.30;96247.00;;;;5083630;28;20231;-65
2023/12/25 12:44:23;;;;;;;35.33;32.60;;;;;12.50;96237.00;;;;5082820;28;20226;-65
2023/12/25 12:47:12;;;;;;;37.37;34.23;;;;;12.20;96250.00;;;;5083790;28;20208;-64
2023/12/25 12:50:01;;;;;;;39.93;36.93;;;;;12.40;96248.00;;;;5083468;28;20775;-65
2023/12/25 12:52:51;;;;;;;44.80;40.37;;;;;12.50;96250.00;;;;5080971;28;20207;-65
2023/12/25 12:55:41;;;;;;;39.67;36.47;;;;;12.60;96243.00;;;;5084039;28;20607;-65
2023/12/25 12:58:30;;;;;;;36.77;34.37;;;;;12.50;96230.00;;;;5080371;28;20579;-65
2023/12/25 13:01:20;;;;;;;46.40;42.27;;;;;12.50;96234.00;;;;5083292;28;20215;-64
2023/12/25 13:04:09;;;;;;;46.83;43.33;;;;;12.30;96248.00;;;;5088589;28;20223;-65
2023/12/25 13:06:58;;;;;;;50.57;45.67;;;;;12.20;96240.00;;;;5084046;28;20218;-64
2023/12/25 13:09:47;;;;;;;40.87;36.93;;;;;12.30;96245.00;;;;5080627;28;20212;-65
2023/12/25 13:12:38;;;;;;;37.53;34.60;;;;;12.30;96240.00;;;;5086385;28;20195;-65
2023/12/25 13:15:27;;;;;;;35.20;32.30;;;;;12.50;96246.00;;;;5082391;28;20234;-64
2023/12/25 13:18:17;;;;;;;36.23;33.33;;;;;12.50;96246.00;;;;5084103;28;20210;-64
2023/12/25 13:21:06;;;;;;;42.07;38.90;;;;;12.20;96244.00;;;;5085039;28;20585;-64
2023/12/25 13:23:56;;;;;;;46.63;42.20;;;;;12.10;96258.00;;;;5080147;28;20291;-65
2023/12/25 13:26:45;;;;;;;35.10;32.20;;;;;12.40;96254.00;;;;5085330;28;20222;-65
2023/12/25 13:29:35;;;;;;;35.00;32.33;;;;;12.50;96244.00;;;;5083894;28;20565;-64
2023/12/25 13:32:25;;;;;;;31.13;28.33;;;;;12.30;96253.00;;;;5079298;28;20676;-65
2023/12/25 13:35:14;;;;;;;33.63;30.80;;;;;12.00;96252.00;;;;5081371;28;20341;-65
2023/12/25 13:38:04;;;;;;;34.87;32.30;;;;;12.40;96261.00;;;;5082033;28;20191;-65
2023/12/25 13:40:54;;;;;;;37.67;33.93;;;;;12.40;96262.00;;;;5079051;28;20247;-65
2023/12/25 13:43:43;;;;;;;36.00;32.97;;;;;12.50;96263.00;;;;5085584;28;20577;-67
2023/12/25 13:46:34;;;;;;;38.40;35.30;;;;;12.30;96259.00;;;;5088093;28;20213;-64
2023/12/25 13:49:23;;;;;;;45.33;41.07;;;;;12.20;96275.00;;;;5080907;28;20196;-65
2023/12/25 13:52:12;;;;;;;35.70;32.53;;;;;11.90;96275.00;;;;5082494;28;21103;-63
2023/12/25 13:55:02;;;;;;;30.13;27.53;;;;;11.80;96265.00;;;;5082547;28;20454;-64
2023/12/25 13:57:51;;;;;;;35.10;31.50;;;;;12.00;96269.00;;;;5084383;28;20203;-65
2023/12/25 14:00:41;;;;;;;26.43;24.47;;;;;12.10;96274.00;;;;5085841;28;20253;-65
2023/12/25 14:03:31;;;;;;;32.97;29.03;;;;;11.90;96269.00;;;;5082140;28;20207;-64
2023/12/25 14:06:21;;;;;;;27.47;25.83;;;;;12.10;96273.00;;;;5085181;28;20843;-63
2023/12/25 14:09:11;;;;;;;37.50;29.20;;;;;12.10;96277.00;;;;5081451;28;20209;-64
2023/12/25 14:12:00;;;;;;;49.40;32.97;;;;;12.00;96276.00;;;;5072995;28;20645;-65